Time;durP1;ratioP1;P1;durP2;ratioP2;P2;SDS_P1;SDS_P2;PMS_P1;PMS_P2;Temp;Humidity;BMP_temperature;BMP_pressure;BME280_temperature;BME280_humidity;BME280_pressure;Samples;Min_cycle;Max_cycle;Signal;HPM_P1;HPM_P2
2022/07/22 00:00:56;;;;;;;7.88;5.70;;;22.00;99.00;;;;;;7050983;28;20828;-80
2022/07/22 00:04:18;;;;;;;7.72;5.82;;;22.00;99.30;;;;;;7051110;28;20439;-79
2022/07/22 00:07:40;;;;;;;8.05;6.13;;;22.10;99.30;;;;;;7048609;28;20483;-79
2022/07/22 00:11:02;;;;;;;9.40;6.10;;;22.10;99.60;;;;;;7023492;28;20508;-80
2022/07/22 00:14:24;;;;;;;7.72;5.80;;;22.10;99.40;;;;;;7022482;28;20421;-79
2022/07/22 00:17:48;;;;;;;7.53;5.60;;;22.10;99.50;;;;;;7021899;28;20450;-81
2022/07/22 00:21:10;;;;;;;9.10;6.10;;;22.10;99.20;;;;;;7023298;28;20433;-79
2022/07/22 00:24:32;;;;;;;7.80;5.95;;;22.10;99.40;;;;;;7027099;28;20915;-79
2022/07/22 00:27:54;;;;;;;9.65;6.00;;;22.10;99.20;;;;;;7029959;28;20443;-77
2022/07/22 00:31:16;;;;;;;8.88;5.90;;;22.10;99.10;;;;;;7053847;28;20455;-78
2022/07/22 00:34:40;;;;;;;8.25;5.80;;;22.10;99.20;;;;;;7056268;28;20420;-78
2022/07/22 00:38:02;;;;;;;8.25;5.68;;;22.10;99.20;;;;;;7053269;28;20431;-79
2022/07/22 00:41:24;;;;;;;8.45;6.05;;;21.90;98.60;;;;;;7055249;28;20432;-78
2022/07/22 00:44:46;;;;;;;8.23;6.00;;;21.70;99.00;;;;;;7037971;28;20464;-78
2022/07/22 00:48:08;;;;;;;8.32;6.22;;;21.60;99.00;;;;;;7032492;28;20439;-79
2022/07/22 00:51:35;;;;;;;7.95;6.20;;;21.40;99.30;;;;;;7058085;28;20889;-78
2022/07/22 00:54:59;;;;;;;8.33;6.17;;;21.30;99.70;;;;;;7059262;28;20416;-80
2022/07/22 00:58:21;;;;;;;9.20;6.30;;;21.30;99.90;;;;;;7055921;28;20448;-77
2022/07/22 01:01:43;;;;;;;9.35;6.50;;;21.30;99.90;;;;;;7055920;28;20424;-78
2022/07/22 01:05:07;;;;;;;11.30;6.63;;;21.40;99.90;;;;;;7006818;28;20431;-78
2022/07/22 01:08:31;;;;;;;7.80;6.30;;;21.40;99.90;;;;;;7021888;28;20486;-78
2022/07/22 01:11:53;;;;;;;7.82;6.20;;;21.30;99.90;;;;;;7043837;28;20929;-80
2022/07/22 01:15:15;;;;;;;9.65;6.20;;;21.30;99.90;;;;;;7028387;28;20429;-80
2022/07/22 01:18:38;;;;;;;8.30;6.20;;;21.30;99.90;;;;;;7037727;28;20428;-78
2022/07/22 01:22:02;;;;;;;9.30;6.37;;;21.30;99.90;;;;;;7053782;28;20808;-79
2022/07/22 01:25:25;;;;;;;9.27;6.40;;;21.30;99.90;;;;;;7056036;28;20424;-79
2022/07/22 01:28:47;;;;;;;8.07;6.33;;;21.20;99.90;;;;;;7039796;28;20504;-78
2022/07/22 01:32:09;;;;;;;8.02;6.20;;;21.20;99.90;;;;;;7040831;28;20442;-79
2022/07/22 01:35:31;;;;;;;9.25;6.65;;;21.20;99.90;;;;;;7060789;28;20428;-80
2022/07/22 01:38:55;;;;;;;9.38;6.50;;;21.10;99.90;;;;;;7049546;28;20451;-79
2022/07/22 01:42:17;;;;;;;8.25;6.63;;;20.90;99.90;;;;;;7029687;28;20425;-80
2022/07/22 01:45:39;;;;;;;7.83;6.53;;;20.80;99.90;;;;;;7025390;28;20530;-79
2022/07/22 01:49:01;;;;;;;8.90;6.38;;;20.80;99.90;;;;;;7055137;28;20809;-83
2022/07/22 01:52:23;;;;;;;9.37;7.00;;;20.80;99.90;;;;;;7044125;28;20429;-81
2022/07/22 01:55:47;;;;;;;9.90;7.90;;;20.80;99.90;;;;;;7026808;28;20433;-78
2022/07/22 01:59:09;;;;;;;8.85;7.10;;;20.80;99.90;;;;;;7026233;28;20514;-79
2022/07/22 02:02:31;;;;;;;8.70;6.87;;;20.80;99.90;;;;;;7047183;28;20939;-78
2022/07/22 02:05:53;;;;;;;9.75;6.80;;;20.90;99.90;;;;;;7054623;28;20424;-82
2022/07/22 02:09:16;;;;;;;9.33;6.93;;;20.90;99.90;;;;;;7039195;28;20436;-81
2022/07/22 02:12:40;;;;;;;9.17;7.23;;;21.00;99.90;;;;;;7053539;28;20428;-78
2022/07/22 02:16:03;;;;;;;8.90;7.10;;;20.90;99.90;;;;;;7052609;28;20910;-78
2022/07/22 02:19:25;;;;;;;9.35;6.90;;;20.90;99.90;;;;;;7041962;28;20909;-78
2022/07/22 02:22:47;;;;;;;9.93;7.05;;;21.00;99.90;;;;;;7053523;28;20469;-79
2022/07/22 02:26:09;;;;;;;8.38;6.80;;;20.80;99.90;;;;;;7053261;28;20424;-79
2022/07/22 02:29:34;;;;;;;9.60;6.90;;;20.80;99.90;;;;;;7033698;28;20442;-79
2022/07/22 02:32:57;;;;;;;10.60;6.68;;;20.70;99.90;;;;;;7026065;28;20927;-78
2022/07/22 02:36:19;;;;;;;8.63;6.53;;;20.70;99.90;;;;;;7029977;28;20424;-79
2022/07/22 02:39:42;;;;;;;9.95;6.55;;;20.60;99.90;;;;;;7052296;28;20447;-79
2022/07/22 02:43:06;;;;;;;8.43;6.70;;;20.50;99.90;;;;;;7051963;28;20432;-78
2022/07/22 02:46:29;;;;;;;9.75;6.78;;;20.40;99.90;;;;;;7052239;28;20459;-78
2022/07/22 02:49:52;;;;;;;9.93;6.55;;;20.30;99.90;;;;;;7026514;28;20448;-80
2022/07/22 02:53:14;;;;;;;9.30;6.78;;;20.30;99.90;;;;;;7024378;28;20426;-79
2022/07/22 02:56:36;;;;;;;8.65;6.82;;;20.10;99.90;;;;;;7024567;28;20426;-80
2022/07/22 02:59:58;;;;;;;8.45;6.30;;;20.10;99.90;;;;;;7041087;28;20486;-78
2022/07/22 03:03:21;;;;;;;9.95;6.57;;;20.20;99.90;;;;;;7026217;28;20421;-79
2022/07/22 03:06:43;;;;;;;8.32;6.38;;;20.30;99.90;;;;;;7024130;28;20464;-78
2022/07/22 03:10:07;;;;;;;9.07;6.60;;;20.30;99.90;;;;;;7023518;28;20437;-79
2022/07/22 03:13:29;;;;;;;9.23;6.63;;;20.30;99.90;;;;;;7050020;28;20420;-77
2022/07/22 03:16:51;;;;;;;8.18;6.65;;;20.20;99.90;;;;;;7048903;28;20439;-78
2022/07/22 03:20:14;;;;;;;9.63;6.68;;;20.00;99.90;;;;;;7027430;28;20429;-78
2022/07/22 03:23:36;;;;;;;8.90;6.70;;;19.90;99.90;;;;;;7041964;28;20424;-80
2022/07/22 03:26:58;;;;;;;10.77;6.90;;;19.80;99.90;;;;;;7037574;28;20418;-80
2022/07/22 03:30:20;;;;;;;8.57;6.40;;;19.80;99.90;;;;;;7022964;28;20457;-79
2022/07/22 03:33:42;;;;;;;9.03;6.83;;;19.70;99.90;;;;;;7049442;28;20435;-78
2022/07/22 03:37:06;;;;;;;8.88;6.78;;;19.70;99.90;;;;;;7044123;28;20433;-79
2022/07/22 03:40:28;;;;;;;9.02;6.65;;;19.70;99.90;;;;;;7045500;28;20432;-78
2022/07/22 03:43:50;;;;;;;9.50;6.73;;;19.80;99.90;;;;;;7050513;28;20428;-80
2022/07/22 03:47:12;;;;;;;9.20;6.10;;;19.80;99.90;;;;;;7051998;28;20452;-80
2022/07/22 03:50:35;;;;;;;8.43;6.28;;;19.80;99.90;;;;;;7040863;28;20929;-79
2022/07/22 03:53:58;;;;;;;9.37;6.90;;;19.80;99.90;;;;;;7049611;28;20462;-77
2022/07/22 03:57:20;;;;;;;9.40;7.30;;;19.80;99.90;;;;;;7047210;28;20452;-76
2022/07/22 04:00:42;;;;;;;9.52;6.78;;;19.70;99.90;;;;;;7032484;28;20462;-80
2022/07/22 04:04:05;;;;;;;9.77;6.50;;;19.70;99.90;;;;;;7057243;28;20955;-78
2022/07/22 04:07:27;;;;;;;9.00;7.25;;;19.60;99.90;;;;;;7038901;28;20472;-78
2022/07/22 04:10:50;;;;;;;9.38;6.88;;;19.50;99.90;;;;;;7028515;28;20449;-78
2022/07/22 04:14:12;;;;;;;8.33;7.00;;;19.60;99.90;;;;;;7029030;28;20656;-80
2022/07/22 04:17:34;;;;;;;9.68;7.28;;;19.60;99.90;;;;;;7028398;28;20461;-79
2022/07/22 04:20:56;;;;;;;9.80;7.13;;;19.50;99.90;;;;;;7029757;28;20444;-79
2022/07/22 04:24:18;;;;;;;8.40;6.70;;;19.50;99.90;;;;;;7028756;28;20425;-77
2022/07/22 04:27:42;;;;;;;10.50;7.07;;;19.50;99.90;;;;;;7055200;28;20808;-79
2022/07/22 04:31:05;;;;;;;10.13;6.50;;;19.60;99.90;;;;;;7056677;28;20420;-79
2022/07/22 04:34:27;;;;;;;12.47;7.03;;;19.70;99.90;;;;;;7056968;28;20431;-79
2022/07/22 04:37:49;;;;;;;8.35;7.00;;;19.80;99.90;;;;;;7031214;28;20430;-79
2022/07/22 04:41:11;;;;;;;8.57;7.40;;;19.80;99.90;;;;;;7028270;28;20475;-79
2022/07/22 04:44:34;;;;;;;10.30;7.30;;;19.80;99.90;;;;;;7028627;28;20440;-78
2022/07/22 04:47:56;;;;;;;9.65;7.00;;;19.80;99.90;;;;;;7028358;28;20432;-78
2022/07/22 04:51:18;;;;;;;9.07;6.95;;;19.90;99.90;;;;;;7042522;28;20482;-78
2022/07/22 04:54:40;;;;;;;9.18;7.00;;;19.90;99.90;;;;;;7038662;28;20918;-78
2022/07/22 04:58:02;;;;;;;8.93;7.20;;;20.00;99.90;;;;;;7056094;28;20476;-78
2022/07/22 05:01:26;;;;;;;9.55;7.18;;;20.00;99.90;;;;;;7056223;28;20934;-77
2022/07/22 05:04:48;;;;;;;9.57;7.30;;;20.00;99.90;;;;;;7056405;28;20419;-78
2022/07/22 05:08:10;;;;;;;9.75;7.07;;;19.90;99.90;;;;;;7054566;28;20466;-79
2022/07/22 05:11:32;;;;;;;8.95;7.20;;;19.90;99.90;;;;;;7055271;28;20435;-78
2022/07/22 05:14:55;;;;;;;11.33;8.13;;;19.90;99.90;;;;;;7055422;28;20420;-80
2022/07/22 05:18:18;;;;;;;10.90;9.18;;;20.00;99.90;;;;;;7055565;28;20880;-77
2022/07/22 05:21:40;;;;;;;12.00;8.07;;;20.00;99.90;;;;;;7044879;28;20429;-79
2022/07/22 05:25:02;;;;;;;10.27;8.23;;;19.90;99.90;;;;;;7026928;28;20445;-79
2022/07/22 05:28:24;;;;;;;10.95;8.30;;;19.90;99.90;;;;;;7026440;28;20429;-79
2022/07/22 05:31:46;;;;;;;11.67;8.20;;;20.00;99.90;;;;;;7026832;28;20451;-79
2022/07/22 05:35:10;;;;;;;11.25;8.27;;;20.00;99.90;;;;;;7027037;28;20426;-80
2022/07/22 05:38:33;;;;;;;10.13;8.15;;;20.00;99.90;;;;;;7026756;28;20426;-80
2022/07/22 05:41:55;;;;;;;10.10;8.07;;;20.00;99.90;;;;;;7026509;28;20799;-79
2022/07/22 05:45:18;;;;;;;11.52;8.63;;;20.10;99.90;;;;;;7048314;28;20420;-80
2022/07/22 05:48:40;;;;;;;12.38;8.50;;;20.20;99.90;;;;;;7054109;28;20453;-78
2022/07/22 05:52:04;;;;;;;10.07;8.30;;;20.10;99.90;;;;;;7054329;28;20519;-80
2022/07/22 05:55:26;;;;;;;10.65;8.40;;;20.10;99.90;;;;;;7027608;28;20779;-80
2022/07/22 05:58:48;;;;;;;11.13;8.73;;;20.20;99.90;;;;;;7026055;28;20825;-78
2022/07/22 06:02:10;;;;;;;10.15;8.40;;;20.20;99.90;;;;;;7026092;28;20791;-78
2022/07/22 06:05:32;;;;;;;11.30;9.13;;;20.30;99.90;;;;;;7025587;28;20426;-73
2022/07/22 06:08:56;;;;;;;12.05;9.90;;;20.10;99.90;;;;;;7025795;28;20496;-74
2022/07/22 06:12:18;;;;;;;12.52;9.75;;;20.10;99.90;;;;;;7040261;28;20432;-75
2022/07/22 06:15:40;;;;;;;13.32;10.82;;;20.10;99.90;;;;;;7053826;28;20482;-74
2022/07/22 06:19:02;;;;;;;13.52;11.15;;;20.00;99.90;;;;;;7053668;28;20427;-76
2022/07/22 06:22:24;;;;;;;12.93;11.43;;;19.70;99.90;;;;;;7051919;28;20949;-75
2022/07/22 06:25:48;;;;;;;13.40;11.75;;;20.00;99.90;;;;;;7053420;28;20789;-77
2022/07/22 06:29:10;;;;;;;14.45;11.90;;;20.10;99.90;;;;;;7045734;28;20957;-74
2022/07/22 06:32:32;;;;;;;15.23;11.85;;;19.70;99.90;;;;;;7033289;28;20465;-75
2022/07/22 06:35:54;;;;;;;13.40;11.65;;;19.80;99.90;;;;;;7025044;28;20429;-73
2022/07/22 06:39:16;;;;;;;15.70;12.85;;;20.10;99.90;;;;;;7025535;28;20429;-75
2022/07/22 06:42:40;;;;;;;14.73;12.63;;;20.20;99.90;;;;;;7025720;28;20433;-75
2022/07/22 06:46:04;;;;;;;14.13;12.43;;;20.20;99.90;;;;;;7030181;28;20420;-74
2022/07/22 06:49:26;;;;;;;14.80;12.60;;;20.30;99.90;;;;;;7053887;28;20960;-75
2022/07/22 06:52:48;;;;;;;14.23;12.20;;;20.30;99.90;;;;;;7054173;28;20424;-74
2022/07/22 06:56:10;;;;;;;18.52;11.65;;;20.50;99.90;;;;;;7052362;28;20480;-76
2022/07/22 06:59:34;;;;;;;15.27;12.38;;;20.50;99.90;;;;;;7026611;28;20468;-76
2022/07/22 07:02:59;;;;;;;15.65;11.77;;;20.40;99.90;;;;;;7026754;28;20458;-74
2022/07/22 07:06:21;;;;;;;13.00;11.63;;;20.60;99.90;;;;;;7033229;28;20784;-74
2022/07/22 07:09:44;;;;;;;14.10;11.63;;;20.70;99.90;;;;;;7036352;28;20887;-75
2022/07/22 07:13:06;;;;;;;13.13;11.02;;;20.60;99.90;;;;;;7024229;28;20882;-75
2022/07/22 07:16:29;;;;;;;13.57;10.82;;;20.90;99.90;;;;;;7024461;28;20567;-74
2022/07/22 07:19:51;;;;;;;14.55;10.95;;;21.10;99.90;;;;;;7024810;28;20468;-75
2022/07/22 07:23:13;;;;;;;14.35;10.57;;;21.20;99.90;;;;;;7041151;28;20928;-75
2022/07/22 07:26:35;;;;;;;11.87;10.40;;;21.40;99.90;;;;;;7024815;28;20852;-75
2022/07/22 07:29:57;;;;;;;13.68;10.85;;;21.40;99.90;;;;;;7000156;28;20506;-75
2022/07/22 07:33:21;;;;;;;13.52;10.65;;;21.50;99.90;;;;;;7019724;28;20554;-75
2022/07/22 07:36:43;;;;;;;12.38;10.40;;;21.60;99.90;;;;;;7019991;28;20517;-75
2022/07/22 07:40:07;;;;;;;13.70;10.60;;;21.70;99.90;;;;;;7021025;28;20430;-74
2022/07/22 07:43:29;;;;;;;13.23;10.18;;;21.70;99.90;;;;;;7020131;28;20552;-76
2022/07/22 07:46:51;;;;;;;12.60;10.30;;;21.80;99.90;;;;;;7043668;28;20529;-76
2022/07/22 07:50:14;;;;;;;11.60;9.75;;;21.90;99.90;;;;;;7047752;28;20497;-74
2022/07/22 07:53:37;;;;;;;12.15;9.48;;;21.80;99.90;;;;;;7039247;28;20464;-74
2022/07/22 07:56:59;;;;;;;13.02;9.57;;;21.80;99.90;;;;;;7020088;28;20472;-79
2022/07/22 08:00:27;;;;;;;11.05;9.48;;;22.00;99.90;;;;;;7019923;28;20461;-79
2022/07/22 08:03:50;;;;;;;12.00;9.45;;;21.90;99.90;;;;;;7004785;28;20499;-81
2022/07/22 08:07:14;;;;;;;12.33;9.90;;;22.00;99.90;;;;;;7029043;28;20988;-79
2022/07/22 08:10:36;;;;;;;13.07;9.73;;;22.10;99.90;;;;;;7048049;28;20475;-79
2022/07/22 08:13:58;;;;;;;11.83;9.63;;;22.10;99.90;;;;;;7047656;28;20525;-79
2022/07/22 08:17:20;;;;;;;11.20;9.70;;;22.00;99.90;;;;;;7048047;28;20424;-79
2022/07/22 08:20:42;;;;;;;11.43;9.60;;;22.00;99.90;;;;;;7047954;28;20932;-78
2022/07/22 08:24:06;;;;;;;12.07;9.50;;;22.10;99.90;;;;;;7024380;28;20478;-79
2022/07/22 08:27:28;;;;;;;12.80;9.27;;;22.20;99.90;;;;;;7047354;28;20470;-79
2022/07/22 08:30:50;;;;;;;12.85;10.00;;;22.30;99.90;;;;;;7047810;28;20443;-78
2022/07/22 08:34:13;;;;;;;11.13;8.75;;;22.30;99.90;;;;;;7047871;28;20893;-79
2022/07/22 08:37:35;;;;;;;14.07;9.95;;;22.40;99.90;;;;;;7050093;28;20486;-80
2022/07/22 08:40:58;;;;;;;14.30;10.53;;;22.40;99.90;;;;;;7028598;28;20541;-80
2022/07/22 08:44:21;;;;;;;12.10;9.90;;;22.30;99.90;;;;;;7021908;28;20486;-78
2022/07/22 08:47:46;;;;;;;13.37;9.63;;;22.40;99.90;;;;;;7023374;28;20433;-79
2022/07/22 08:51:08;;;;;;;13.50;9.50;;;22.50;99.90;;;;;;7023801;28;20480;-79
2022/07/22 08:54:30;;;;;;;14.23;9.85;;;22.60;99.90;;;;;;7048120;28;20489;-79
2022/07/22 08:57:54;;;;;;;12.87;10.03;;;22.70;99.90;;;;;;7051975;28;20462;-79
2022/07/22 09:01:18;;;;;;;11.82;9.27;;;22.70;99.90;;;;;;7051599;28;20470;-79
2022/07/22 09:04:54;;;;;;;12.03;9.20;;;22.80;99.90;;;;;;7052111;28;20420;-78
2022/07/22 09:08:17;;;;;;;12.60;10.10;;;22.90;99.90;;;;;;7051956;28;20760;-79
2022/07/22 09:11:39;;;;;;;10.82;9.25;;;23.00;99.90;;;;;;7051827;28;20559;-79
2022/07/22 09:15:04;;;;;;;13.20;10.00;;;23.10;99.90;;;;;;7051723;28;20428;-79
2022/07/22 09:18:26;;;;;;;12.15;9.32;;;23.10;99.70;;;;;;7051195;28;20838;-78
2022/07/22 09:21:50;;;;;;;12.93;8.90;;;23.20;99.40;;;;;;7032996;28;20433;-79
2022/07/22 09:25:26;;;;;;;11.60;8.77;;;23.30;99.30;;;;;;7020729;28;20437;-79
2022/07/22 09:28:56;;;;;;;11.07;8.73;;;23.40;99.20;;;;;;7021480;28;20502;-80
2022/07/22 09:32:20;;;;;;;11.93;9.10;;;23.50;99.10;;;;;;7039710;28;20943;-81
2022/07/22 09:35:42;;;;;;;11.40;8.60;;;23.50;98.60;;;;;;7032513;28;20494;-80
2022/07/22 09:39:28;;;;;;;10.15;8.52;;;23.60;98.60;;;;;;7031728;28;20468;-80
2022/07/22 09:42:53;;;;;;;10.35;9.27;;;23.60;98.50;;;;;;7036353;28;20428;-81
2022/07/22 09:46:15;;;;;;;12.25;8.38;;;23.70;98.10;;;;;;7035652;28;20436;-80
2022/07/22 09:49:40;;;;;;;12.33;8.83;;;23.80;98.30;;;;;;7017862;28;20518;-79
2022/07/22 09:53:02;;;;;;;11.55;8.60;;;23.90;98.20;;;;;;7028019;28;20488;-79
2022/07/22 09:56:25;;;;;;;11.25;8.40;;;24.00;97.80;;;;;;7049444;28;20464;-78
2022/07/22 09:59:47;;;;;;;10.13;8.18;;;24.00;97.30;;;;;;7011878;28;20433;-80
2022/07/22 10:03:14;;;;;;;12.03;8.60;;;24.10;97.10;;;;;;7023624;28;20464;-80
2022/07/22 10:06:39;;;;;;;10.40;8.13;;;24.20;97.40;;;;;;7023636;28;20425;-76
2022/07/22 10:10:02;;;;;;;11.43;8.32;;;24.30;96.90;;;;;;7036239;28;20428;-79
2022/07/22 10:13:24;;;;;;;10.35;7.97;;;24.30;96.80;;;;;;7048920;28;20498;-79
2022/07/22 10:16:47;;;;;;;10.18;7.90;;;24.40;96.90;;;;;;7024115;28;20947;-78
2022/07/22 10:20:11;;;;;;;10.93;8.18;;;24.40;96.30;;;;;;7027909;28;20923;-79
2022/07/22 10:23:35;;;;;;;11.20;8.00;;;24.60;96.10;;;;;;7037855;28;20525;-79
2022/07/22 10:27:01;;;;;;;10.75;7.70;;;24.60;95.90;;;;;;7022139;28;20461;-77
2022/07/22 10:30:28;;;;;;;10.15;7.63;;;24.70;95.60;;;;;;7034978;28;20475;-79
2022/07/22 10:33:52;;;;;;;12.63;7.73;;;24.80;95.10;;;;;;7035544;28;21044;-79
2022/07/22 10:37:40;;;;;;;9.93;7.70;;;25.00;95.30;;;;;;7036295;28;20439;-79
2022/07/22 10:41:07;;;;;;;10.07;7.55;;;25.10;95.20;;;;;;7020881;28;20487;-78
2022/07/22 10:44:48;;;;;;;9.57;7.30;;;25.00;94.70;;;;;;7019294;28;20457;-80
2022/07/22 10:48:12;;;;;;;9.40;7.43;;;25.20;94.70;;;;;;7029090;28;20432;-80
2022/07/22 10:51:34;;;;;;;9.50;6.93;;;25.30;95.10;;;;;;7047297;28;20435;-80
2022/07/22 10:55:21;;;;;;;8.68;7.10;;;25.30;93.90;;;;;;7051696;28;20921;-79
2022/07/22 10:58:54;;;;;;;9.23;7.05;;;25.50;94.40;;;;;;7039000;28;20445;-76
2022/07/22 11:02:18;;;;;;;9.75;7.57;;;25.50;94.70;;;;;;7024705;28;20437;-79
2022/07/22 11:05:40;;;;;;;10.60;7.43;;;25.50;93.10;;;;;;7024259;28;20461;-79
2022/07/22 11:09:05;;;;;;;8.77;7.20;;;25.70;93.80;;;;;;7024090;28;20437;-78
2022/07/22 11:12:27;;;;;;;9.68;7.50;;;25.70;92.90;;;;;;7024190;28;20469;-79
2022/07/22 11:15:51;;;;;;;10.02;7.18;;;25.80;93.30;;;;;;7023928;28;20418;-77
2022/07/22 11:19:13;;;;;;;9.65;6.97;;;26.00;93.60;;;;;;7024174;28;20433;-80
2022/07/22 11:22:36;;;;;;;10.07;7.17;;;26.00;93.10;;;;;;7024383;28;20429;-77
2022/07/22 11:25:58;;;;;;;8.20;7.10;;;26.10;92.50;;;;;;7024116;28;20433;-80
2022/07/22 11:29:33;;;;;;;10.73;7.20;;;26.30;92.50;;;;;;7024012;28;20426;-77
2022/07/22 11:32:56;;;;;;;8.70;7.00;;;26.30;91.70;;;;;;7027691;28;20513;-79
2022/07/22 11:36:19;;;;;;;10.35;7.05;;;26.50;91.50;;;;;;7036788;28;20426;-79
2022/07/22 11:39:41;;;;;;;9.67;7.13;;;26.70;92.20;;;;;;7026587;28;20426;-77
2022/07/22 11:43:03;;;;;;;8.63;6.90;;;27.00;92.40;;;;;;7025793;28;20428;-79
2022/07/22 11:46:26;;;;;;;9.43;6.73;;;27.00;91.30;;;;;;7030643;28;20434;-78
2022/07/22 11:49:50;;;;;;;9.70;6.65;;;27.20;91.20;;;;;;7027778;28;20887;-77
2022/07/22 11:53:13;;;;;;;9.30;6.85;;;27.40;91.20;;;;;;7024239;28;20430;-80
2022/07/22 11:56:37;;;;;;;9.20;6.80;;;27.50;90.70;;;;;;7025066;28;20547;-78
2022/07/22 12:00:08;;;;;;;8.38;6.50;;;27.60;87.70;;;;;;7024917;28;20430;-79
2022/07/22 12:03:30;;;;;;;8.40;6.53;;;27.70;88.10;;;;;;7025204;28;20795;-78
2022/07/22 12:06:55;;;;;;;10.45;6.78;;;27.70;87.10;;;;;;7039358;28;20413;-76
2022/07/22 12:10:19;;;;;;;8.80;6.60;;;27.80;87.00;;;;;;7032279;28;20426;-77
2022/07/22 12:13:44;;;;;;;8.50;6.93;;;27.90;86.80;;;;;;7042206;28;20422;-77
2022/07/22 12:17:09;;;;;;;9.70;6.40;;;28.10;88.10;;;;;;7043636;28;20504;-78
2022/07/22 12:20:32;;;;;;;9.43;6.10;;;28.20;83.50;;;;;;7044486;28;20915;-76
2022/07/22 12:23:58;;;;;;;8.55;6.40;;;28.30;85.40;;;;;;7047981;28;20420;-76
2022/07/22 12:27:20;;;;;;;7.53;6.15;;;28.50;85.30;;;;;;7047794;28;20429;-79
2022/07/22 12:30:43;;;;;;;8.85;6.18;;;28.60;83.30;;;;;;7036681;28;20846;-78
2022/07/22 12:34:05;;;;;;;8.15;6.40;;;28.60;80.60;;;;;;7031144;28;20436;-77
2022/07/22 12:37:29;;;;;;;8.15;6.18;;;28.70;81.40;;;;;;7030627;28;20445;-76
2022/07/22 12:40:53;;;;;;;8.63;6.15;;;28.90;81.00;;;;;;7030306;28;20764;-76
2022/07/22 12:44:20;;;;;;;8.45;6.38;;;29.00;80.20;;;;;;7031620;28;20437;-78
2022/07/22 12:47:46;;;;;;;8.05;6.22;;;29.00;77.40;;;;;;7028992;28;20421;-77
2022/07/22 12:51:12;;;;;;;7.90;6.15;;;29.10;79.10;;;;;;7051735;28;20423;-77
2022/07/22 12:54:34;;;;;;;7.82;6.10;;;29.40;80.30;;;;;;7059845;28;20439;-79
2022/07/22 12:57:58;;;;;;;8.48;6.10;;;29.50;79.20;;;;;;7040236;28;20434;-78
2022/07/22 13:01:20;;;;;;;7.40;5.80;;;29.60;77.00;;;;;;7017610;28;20470;-79
2022/07/22 13:04:42;;;;;;;6.70;5.60;;;29.60;76.90;;;;;;7028968;28;20464;-77
2022/07/22 13:08:05;;;;;;;8.05;5.70;;;29.70;75.60;;;;;;7030317;28;20446;-76
2022/07/22 13:11:27;;;;;;;8.23;5.65;;;29.90;76.10;;;;;;7011306;28;20455;-77
2022/07/22 13:14:51;;;;;;;8.45;6.15;;;30.00;74.10;;;;;;7031150;28;20433;-77
2022/07/22 13:18:13;;;;;;;8.57;5.83;;;30.00;72.90;;;;;;7058523;28;20420;-76
2022/07/22 13:21:35;;;;;;;8.23;5.73;;;30.20;73.70;;;;;;7079647;28;20438;-76
2022/07/22 13:24:57;;;;;;;7.70;5.77;;;30.20;69.40;;;;;;7056382;28;20422;-76
2022/07/22 13:28:19;;;;;;;8.47;5.63;;;30.20;68.60;;;;;;7054405;28;20418;-78
2022/07/22 13:31:42;;;;;;;7.40;5.40;;;30.20;69.00;;;;;;7053989;28;20458;-79
2022/07/22 13:35:06;;;;;;;8.23;5.70;;;30.30;69.80;;;;;;7075745;28;20436;-77
2022/07/22 13:38:28;;;;;;;8.25;5.57;;;30.40;67.50;;;;;;7049686;28;20421;-77
2022/07/22 13:41:50;;;;;;;7.68;5.35;;;30.40;70.20;;;;;;7051959;28;20429;-77
2022/07/22 13:45:12;;;;;;;10.77;7.53;;;30.80;69.80;;;;;;7052286;28;20413;-76
2022/07/22 13:48:36;;;;;;;9.43;6.95;;;31.00;69.30;;;;;;7045531;28;20435;-76
2022/07/22 13:51:58;;;;;;;10.53;8.90;;;31.20;67.70;;;;;;7046209;28;20419;-78
2022/07/22 13:55:20;;;;;;;7.93;5.60;;;31.20;67.30;;;;;;7037086;28;20575;-76
2022/07/22 13:58:42;;;;;;;7.93;5.53;;;31.30;65.60;;;;;;7079170;28;20424;-79
2022/07/22 14:02:05;;;;;;;6.82;5.25;;;31.10;65.30;;;;;;7078384;28;20420;-77
2022/07/22 14:05:28;;;;;;;7.15;5.20;;;31.40;67.40;;;;;;7046492;28;20428;-77
2022/07/22 14:08:50;;;;;;;7.10;5.27;;;31.60;66.40;;;;;;7026139;28;20467;-78
2022/07/22 14:12:12;;;;;;;6.40;5.10;;;31.60;62.50;;;;;;7065431;28;20447;-75
2022/07/22 14:15:34;;;;;;;6.90;5.30;;;31.50;61.90;;;;;;7070445;28;20853;-76
2022/07/22 14:18:56;;;;;;;7.10;5.10;;;31.60;64.00;;;;;;7020908;28;20440;-77
2022/07/22 14:22:20;;;;;;;6.45;4.88;;;31.80;64.60;;;;;;7031679;28;20523;-78
2022/07/22 14:25:43;;;;;;;6.88;5.25;;;31.80;61.80;;;;;;7032981;28;20448;-76
2022/07/22 14:29:06;;;;;;;7.10;5.00;;;31.80;61.20;;;;;;7003477;28;20439;-76
2022/07/22 14:32:28;;;;;;;6.97;5.10;;;31.80;63.10;;;;;;7012823;28;20448;-78
2022/07/22 14:35:50;;;;;;;6.93;5.00;;;31.80;60.70;;;;;;7023160;28;20437;-77
2022/07/22 14:39:14;;;;;;;7.20;4.85;;;32.00;62.50;;;;;;7027250;28;20434;-76
2022/07/22 14:42:38;;;;;;;7.25;5.40;;;32.00;60.00;;;;;;7017787;28;20422;-76
2022/07/22 14:46:00;;;;;;;6.57;5.10;;;32.00;60.40;;;;;;7021255;28;20438;-76
2022/07/22 14:49:23;;;;;;;6.50;5.10;;;32.20;62.20;;;;;;7024609;28;20950;-77
2022/07/22 14:52:45;;;;;;;7.57;4.90;;;32.20;60.40;;;;;;7016501;28;20467;-80
2022/07/22 14:56:08;;;;;;;6.83;4.90;;;32.40;61.80;;;;;;7040262;28;20460;-77
2022/07/22 14:59:31;;;;;;;7.13;5.05;;;32.40;59.20;;;;;;7051055;28;20498;-76
2022/07/22 15:02:53;;;;;;;7.65;5.20;;;32.40;60.20;;;;;;7057800;28;20972;-79
2022/07/22 15:06:15;;;;;;;6.63;5.03;;;32.40;58.50;;;;;;7044645;28;20456;-77
2022/07/22 15:09:37;;;;;;;5.88;5.00;;;32.50;60.30;;;;;;7022248;28;20422;-77
2022/07/22 15:13:00;;;;;;;7.15;4.97;;;32.60;59.70;;;;;;7021210;28;20434;-79
2022/07/22 15:16:22;;;;;;;7.68;4.90;;;33.00;59.40;;;;;;7011780;28;20443;-78
2022/07/22 15:19:44;;;;;;;6.90;4.80;;;33.20;59.80;;;;;;7047936;28;20477;-79
2022/07/22 15:23:06;;;;;;;6.45;4.80;;;33.30;58.90;;;;;;7030141;28;20798;-77
2022/07/22 15:26:28;;;;;;;7.80;4.70;;;33.40;58.90;;;;;;7023045;28;20432;-78
2022/07/22 15:29:52;;;;;;;6.10;4.70;;;33.50;58.20;;;;;;7048970;28;20467;-77
2022/07/22 15:33:14;;;;;;;7.38;4.90;;;33.40;58.20;;;;;;7031833;28;20840;-78
2022/07/22 15:36:36;;;;;;;6.43;4.65;;;33.50;57.40;;;;;;7020165;28;20429;-79
2022/07/22 15:39:59;;;;;;;7.15;5.63;;;33.30;56.20;;;;;;7037720;28;21115;-78
2022/07/22 15:43:21;;;;;;;7.35;5.55;;;33.40;55.80;;;;;;7048519;28;20439;-79
2022/07/22 15:46:44;;;;;;;15.52;12.63;;;33.50;58.30;;;;;;7046049;28;20470;-77
2022/07/22 15:50:09;;;;;;;14.07;11.48;;;33.50;56.50;;;;;;7047591;28;20435;-78
2022/07/22 15:53:31;;;;;;;9.07;6.53;;;33.50;57.80;;;;;;7031379;28;20428;-79
2022/07/22 15:59:30;;;;;;;7.03;4.95;;;33.70;57.90;;;;;;7055707;28;20439;-79
2022/07/22 16:00:36;;;;;;;6.18;4.85;;;33.80;58.10;;;;;;7052844;28;20736;-78
2022/07/22 16:03:59;;;;;;;6.70;4.80;;;33.80;55.10;;;;;;7040499;28;20432;-81
2022/07/22 16:07:22;;;;;;;6.47;4.90;;;33.80;54.30;;;;;;7047157;28;20434;-79
2022/07/22 16:10:44;;;;;;;7.82;4.80;;;34.00;55.70;;;;;;7024467;28;20906;-78
2022/07/22 16:14:06;;;;;;;6.97;4.63;;;34.20;55.80;;;;;;7019706;28;20442;-78
2022/07/22 16:17:28;;;;;;;8.80;4.47;;;34.20;52.10;;;;;;7022275;28;20457;-78
2022/07/22 16:20:52;;;;;;;6.37;4.70;;;34.60;54.60;;;;;;7024370;28;20434;-78
2022/07/22 16:24:14;;;;;;;5.93;4.60;;;34.30;52.80;;;;;;7042390;28;20436;-77
2022/07/22 16:27:37;;;;;;;7.20;4.90;;;33.60;54.70;;;;;;7038454;28;20444;-77
2022/07/22 16:30:59;;;;;;;6.85;4.88;;;33.30;55.80;;;;;;7052885;28;20457;-77
2022/07/22 16:34:21;;;;;;;7.60;5.32;;;33.20;56.30;;;;;;7051032;28;20431;-77
2022/07/22 16:37:44;;;;;;;6.28;4.90;;;33.20;57.90;;;;;;7050579;28;20432;-78
2022/07/22 16:41:06;;;;;;;6.82;4.90;;;33.20;57.20;;;;;;7052747;28;20470;-78
2022/07/22 16:44:28;;;;;;;6.68;4.90;;;33.40;59.60;;;;;;7052466;28;20463;-78
2022/07/22 16:47:50;;;;;;;7.57;5.00;;;33.60;59.50;;;;;;7049774;28;20431;-76
2022/07/22 16:51:13;;;;;;;6.50;4.90;;;33.70;59.10;;;;;;7024801;28;20434;-79
2022/07/22 16:54:40;;;;;;;6.85;5.10;;;33.70;58.50;;;;;;7024643;28;21246;-77
2022/07/22 16:58:02;;;;;;;14.53;12.30;;;33.70;59.40;;;;;;7023359;28;20858;-77
2022/07/22 17:01:24;;;;;;;20.25;17.77;;;33.70;61.10;;;;;;7023120;28;20438;-77
2022/07/22 17:04:46;;;;;;;13.60;11.47;;;33.80;59.90;;;;;;7031602;28;20425;-76
2022/07/22 17:08:08;;;;;;;7.30;5.10;;;33.80;57.10;;;;;;7040656;28;20435;-77
2022/07/22 17:11:32;;;;;;;6.00;4.68;;;33.80;57.60;;;;;;7051346;28;20436;-78
2022/07/22 17:14:54;;;;;;;6.25;4.72;;;33.80;57.50;;;;;;7031747;28;20913;-79
2022/07/22 17:18:17;;;;;;;6.25;4.85;;;34.00;56.50;;;;;;7028924;28;20424;-78
2022/07/22 17:21:39;;;;;;;7.10;4.57;;;33.80;55.40;;;;;;7045199;28;21068;-77
2022/07/22 17:25:01;;;;;;;6.15;4.60;;;33.50;54.40;;;;;;6908161;28;20441;-78
2022/07/22 17:28:25;;;;;;;5.93;4.78;;;33.60;54.90;;;;;;6970631;28;21153;-79
2022/07/22 17:31:47;;;;;;;6.13;4.82;;;33.40;55.10;;;;;;6992433;28;20968;-77